sensor_id;sensor_type;location;lat;lon;timestamp;P1;durP1;ratioP1;P2;durP2;ratioP2
6642;SDS011;3357;48.050;7.800;2024-01-11T00:01:36;28.03;;;12.83;;
6642;SDS011;3357;48.050;7.800;2024-01-11T00:04:01;23.67;;;11.23;;
6642;SDS011;3357;48.050;7.800;2024-01-11T00:06:27;28.53;;;12.80;;
6642;SDS011;3357;48.050;7.800;2024-01-11T00:08:52;28.83;;;11.83;;
6642;SDS011;3357;48.050;7.800;2024-01-11T00:11:17;21.37;;;10.37;;
6642;SDS011;3357;48.050;7.800;2024-01-11T00:13:42;27.40;;;12.50;;
6642;SDS011;3357;48.050;7.800;2024-01-11T00:16:08;25.60;;;13.10;;
6642;SDS011;3357;48.050;7.800;2024-01-11T00:18:33;30.17;;;13.07;;
6642;SDS011;3357;48.050;7.800;2024-01-11T00:20:58;28.80;;;12.63;;
6642;SDS011;3357;48.050;7.800;2024-01-11T00:23:23;23.97;;;10.83;;
6642;SDS011;3357;48.050;7.800;2024-01-11T00:25:48;29.93;;;12.40;;
6642;SDS011;3357;48.050;7.800;2024-01-11T00:28:14;27.30;;;12.43;;
6642;SDS011;3357;48.050;7.800;2024-01-11T00:30:39;29.07;;;11.30;;
6642;SDS011;3357;48.050;7.800;2024-01-11T00:33:04;27.80;;;11.77;;
6642;SDS011;3357;48.050;7.800;2024-01-11T00:35:29;20.07;;;10.10;;
6642;SDS011;3357;48.050;7.800;2024-01-11T00:37:55;25.97;;;11.90;;
6642;SDS011;3357;48.050;7.800;2024-01-11T00:40:20;30.97;;;12.17;;
6642;SDS011;3357;48.050;7.800;2024-01-11T00:42:45;24.07;;;10.73;;
6642;SDS011;3357;48.050;7.800;2024-01-11T00:45:10;28.57;;;12.53;;
6642;SDS011;3357;48.050;7.800;2024-01-11T00:47:35;25.73;;;12.27;;
6642;SDS011;3357;48.050;7.800;2024-01-11T00:50:01;25.27;;;11.50;;
6642;SDS011;3357;48.050;7.800;2024-01-11T00:52:26;21.63;;;10.93;;
6642;SDS011;3357;48.050;7.800;2024-01-11T00:54:51;22.53;;;10.70;;
6642;SDS011;3357;48.050;7.800;2024-01-11T00:57:17;24.73;;;10.70;;
6642;SDS011;3357;48.050;7.800;2024-01-11T00:59:42;24.50;;;11.40;;
6642;SDS011;3357;48.050;7.800;2024-01-11T01:02:07;24.27;;;11.20;;
6642;SDS011;3357;48.050;7.800;2024-01-11T01:04:33;22.30;;;10.47;;
6642;SDS011;3357;48.050;7.800;2024-01-11T01:06:58;24.00;;;11.13;;
6642;SDS011;3357;48.050;7.800;2024-01-11T01:09:23;20.47;;;10.50;;
6642;SDS011;3357;48.050;7.800;2024-01-11T01:11:48;25.27;;;11.30;;
6642;SDS011;3357;48.050;7.800;2024-01-11T01:14:14;22.43;;;9.73;;
6642;SDS011;3357;48.050;7.800;2024-01-11T01:16:39;19.57;;;9.27;;
6642;SDS011;3357;48.050;7.800;2024-01-11T01:19:04;25.10;;;10.63;;
6642;SDS011;3357;48.050;7.800;2024-01-11T01:21:30;21.03;;;10.30;;
6642;SDS011;3357;48.050;7.800;2024-01-11T01:23:55;22.00;;;10.30;;
6642;SDS011;3357;48.050;7.800;2024-01-11T01:26:20;23.50;;;10.17;;
6642;SDS011;3357;48.050;7.800;2024-01-11T01:28:45;25.97;;;10.90;;
6642;SDS011;3357;48.050;7.800;2024-01-11T01:31:11;23.33;;;10.20;;
6642;SDS011;3357;48.050;7.800;2024-01-11T01:33:36;25.10;;;10.90;;
6642;SDS011;3357;48.050;7.800;2024-01-11T01:36:01;18.93;;;8.90;;
6642;SDS011;3357;48.050;7.800;2024-01-11T01:38:27;22.80;;;11.30;;
6642;SDS011;3357;48.050;7.800;2024-01-11T01:40:52;22.63;;;10.47;;
6642;SDS011;3357;48.050;7.800;2024-01-11T01:43:17;21.70;;;9.83;;
6642;SDS011;3357;48.050;7.800;2024-01-11T01:45:42;20.87;;;9.77;;
6642;SDS011;3357;48.050;7.800;2024-01-11T01:48:08;28.53;;;11.43;;
6642;SDS011;3357;48.050;7.800;2024-01-11T01:50:33;21.83;;;9.90;;
6642;SDS011;3357;48.050;7.800;2024-01-11T01:52:58;18.13;;;9.87;;
6642;SDS011;3357;48.050;7.800;2024-01-11T01:55:24;20.80;;;9.20;;
6642;SDS011;3357;48.050;7.800;2024-01-11T01:57:50;25.50;;;9.37;;
6642;SDS011;3357;48.050;7.800;2024-01-11T02:00:16;19.87;;;9.90;;
6642;SDS011;3357;48.050;7.800;2024-01-11T02:02:43;28.17;;;10.53;;
6642;SDS011;3357;48.050;7.800;2024-01-11T02:05:10;24.77;;;10.33;;
6642;SDS011;3357;48.050;7.800;2024-01-11T02:07:36;27.20;;;10.47;;
6642;SDS011;3357;48.050;7.800;2024-01-11T02:10:02;22.07;;;10.50;;
6642;SDS011;3357;48.050;7.800;2024-01-11T02:12:28;23.20;;;10.93;;
6642;SDS011;3357;48.050;7.800;2024-01-11T02:14:53;24.90;;;9.50;;
6642;SDS011;3357;48.050;7.800;2024-01-11T02:17:19;19.80;;;9.60;;
6642;SDS011;3357;48.050;7.800;2024-01-11T02:19:44;29.37;;;11.47;;
6642;SDS011;3357;48.050;7.800;2024-01-11T02:22:12;20.83;;;10.47;;
6642;SDS011;3357;48.050;7.800;2024-01-11T02:24:46;24.10;;;10.57;;
6642;SDS011;3357;48.050;7.800;2024-01-11T02:27:11;31.17;;;11.90;;
6642;SDS011;3357;48.050;7.800;2024-01-11T02:29:36;28.50;;;10.00;;
6642;SDS011;3357;48.050;7.800;2024-01-11T02:32:02;20.07;;;9.40;;
6642;SDS011;3357;48.050;7.800;2024-01-11T02:34:27;27.60;;;12.03;;
6642;SDS011;3357;48.050;7.800;2024-01-11T02:36:53;22.37;;;10.90;;
6642;SDS011;3357;48.050;7.800;2024-01-11T02:39:19;27.80;;;11.17;;
6642;SDS011;3357;48.050;7.800;2024-01-11T02:41:45;27.30;;;10.17;;
6642;SDS011;3357;48.050;7.800;2024-01-11T02:44:10;20.90;;;9.53;;
6642;SDS011;3357;48.050;7.800;2024-01-11T02:46:35;21.80;;;9.57;;
6642;SDS011;3357;48.050;7.800;2024-01-11T02:49:01;25.20;;;11.10;;
6642;SDS011;3357;48.050;7.800;2024-01-11T02:51:26;30.93;;;11.20;;
6642;SDS011;3357;48.050;7.800;2024-01-11T02:53:51;22.93;;;10.33;;
6642;SDS011;3357;48.050;7.800;2024-01-11T02:56:16;23.37;;;10.87;;
6642;SDS011;3357;48.050;7.800;2024-01-11T02:58:42;25.13;;;9.70;;
6642;SDS011;3357;48.050;7.800;2024-01-11T03:01:07;21.53;;;10.47;;
6642;SDS011;3357;48.050;7.800;2024-01-11T03:03:32;28.03;;;10.20;;
6642;SDS011;3357;48.050;7.800;2024-01-11T03:05:57;24.33;;;11.17;;
6642;SDS011;3357;48.050;7.800;2024-01-11T03:08:23;24.43;;;10.60;;
6642;SDS011;3357;48.050;7.800;2024-01-11T03:10:48;26.23;;;9.90;;
6642;SDS011;3357;48.050;7.800;2024-01-11T03:13:13;18.07;;;9.07;;
6642;SDS011;3357;48.050;7.800;2024-01-11T03:15:38;21.43;;;10.17;;
6642;SDS011;3357;48.050;7.800;2024-01-11T03:18:04;24.57;;;9.83;;
6642;SDS011;3357;48.050;7.800;2024-01-11T03:20:29;18.13;;;8.87;;
6642;SDS011;3357;48.050;7.800;2024-01-11T03:22:54;21.33;;;9.97;;
6642;SDS011;3357;48.050;7.800;2024-01-11T03:25:20;23.90;;;9.60;;
6642;SDS011;3357;48.050;7.800;2024-01-11T03:27:45;20.93;;;9.60;;
6642;SDS011;3357;48.050;7.800;2024-01-11T03:30:11;24.57;;;10.13;;
6642;SDS011;3357;48.050;7.800;2024-01-11T03:32:36;23.60;;;9.70;;
6642;SDS011;3357;48.050;7.800;2024-01-11T03:35:04;20.40;;;10.43;;
6642;SDS011;3357;48.050;7.800;2024-01-11T03:37:32;20.80;;;9.10;;
6642;SDS011;3357;48.050;7.800;2024-01-11T03:39:57;22.20;;;9.70;;
6642;SDS011;3357;48.050;7.800;2024-01-11T03:42:23;20.47;;;9.30;;
6642;SDS011;3357;48.050;7.800;2024-01-11T03:44:48;25.93;;;10.40;;
6642;SDS011;3357;48.050;7.800;2024-01-11T03:47:14;23.07;;;9.67;;
6642;SDS011;3357;48.050;7.800;2024-01-11T03:49:39;20.40;;;9.70;;
6642;SDS011;3357;48.050;7.800;2024-01-11T03:52:04;24.07;;;10.10;;
6642;SDS011;3357;48.050;7.800;2024-01-11T03:54:30;21.50;;;9.00;;
6642;SDS011;3357;48.050;7.800;2024-01-11T03:56:55;21.20;;;9.77;;
6642;SDS011;3357;48.050;7.800;2024-01-11T03:59:20;24.70;;;9.93;;
6642;SDS011;3357;48.050;7.800;2024-01-11T04:01:46;24.37;;;10.30;;
6642;SDS011;3357;48.050;7.800;2024-01-11T04:04:11;28.73;;;11.20;;
6642;SDS011;3357;48.050;7.800;2024-01-11T04:06:37;24.17;;;10.33;;
6642;SDS011;3357;48.050;7.800;2024-01-11T04:09:02;19.07;;;9.13;;
6642;SDS011;3357;48.050;7.800;2024-01-11T04:11:28;26.70;;;8.93;;
6642;SDS011;3357;48.050;7.800;2024-01-11T04:13:53;16.80;;;9.33;;
6642;SDS011;3357;48.050;7.800;2024-01-11T04:16:19;22.50;;;10.00;;
6642;SDS011;3357;48.050;7.800;2024-01-11T04:18:45;21.93;;;8.60;;
6642;SDS011;3357;48.050;7.800;2024-01-11T04:21:20;17.07;;;8.60;;
6642;SDS011;3357;48.050;7.800;2024-01-11T04:23:49;23.87;;;10.07;;
6642;SDS011;3357;48.050;7.800;2024-01-11T04:26:15;17.60;;;9.10;;
6642;SDS011;3357;48.050;7.800;2024-01-11T04:28:41;19.90;;;8.70;;
6642;SDS011;3357;48.050;7.800;2024-01-11T04:31:08;17.77;;;8.73;;
6642;SDS011;3357;48.050;7.800;2024-01-11T04:33:33;17.90;;;10.00;;
6642;SDS011;3357;48.050;7.800;2024-01-11T04:35:58;19.13;;;10.20;;
6642;SDS011;3357;48.050;7.800;2024-01-11T04:38:23;20.03;;;10.20;;
6642;SDS011;3357;48.050;7.800;2024-01-11T04:40:49;24.50;;;9.07;;
6642;SDS011;3357;48.050;7.800;2024-01-11T04:43:14;19.70;;;8.60;;
6642;SDS011;3357;48.050;7.800;2024-01-11T04:45:40;21.10;;;9.33;;
6642;SDS011;3357;48.050;7.800;2024-01-11T04:48:05;24.90;;;10.40;;
6642;SDS011;3357;48.050;7.800;2024-01-11T04:50:30;26.43;;;8.43;;
6642;SDS011;3357;48.050;7.800;2024-01-11T04:52:56;17.67;;;8.30;;
6642;SDS011;3357;48.050;7.800;2024-01-11T04:55:21;23.80;;;9.30;;
6642;SDS011;3357;48.050;7.800;2024-01-11T04:57:46;18.57;;;8.43;;
6642;SDS011;3357;48.050;7.800;2024-01-11T05:00:11;19.97;;;9.60;;
6642;SDS011;3357;48.050;7.800;2024-01-11T05:02:37;31.73;;;9.67;;
6642;SDS011;3357;48.050;7.800;2024-01-11T05:05:02;26.87;;;9.73;;
6642;SDS011;3357;48.050;7.800;2024-01-11T05:07:28;20.37;;;10.17;;
6642;SDS011;3357;48.050;7.800;2024-01-11T05:09:53;20.13;;;9.73;;
6642;SDS011;3357;48.050;7.800;2024-01-11T05:12:19;24.80;;;11.20;;
6642;SDS011;3357;48.050;7.800;2024-01-11T05:14:44;19.97;;;9.80;;
6642;SDS011;3357;48.050;7.800;2024-01-11T05:17:09;22.20;;;9.63;;
6642;SDS011;3357;48.050;7.800;2024-01-11T05:19:34;24.83;;;9.87;;
6642;SDS011;3357;48.050;7.800;2024-01-11T05:22:00;20.03;;;9.73;;
6642;SDS011;3357;48.050;7.800;2024-01-11T05:24:25;23.27;;;9.20;;
6642;SDS011;3357;48.050;7.800;2024-01-11T05:26:50;22.23;;;10.37;;
6642;SDS011;3357;48.050;7.800;2024-01-11T05:29:15;18.43;;;8.80;;
6642;SDS011;3357;48.050;7.800;2024-01-11T05:31:41;20.87;;;9.73;;
6642;SDS011;3357;48.050;7.800;2024-01-11T05:34:06;28.20;;;9.90;;
6642;SDS011;3357;48.050;7.800;2024-01-11T05:36:31;20.20;;;9.60;;
6642;SDS011;3357;48.050;7.800;2024-01-11T05:38:56;24.37;;;9.63;;
6642;SDS011;3357;48.050;7.800;2024-01-11T05:41:22;17.20;;;9.13;;
6642;SDS011;3357;48.050;7.800;2024-01-11T05:43:47;23.07;;;9.17;;
6642;SDS011;3357;48.050;7.800;2024-01-11T05:46:12;17.27;;;8.77;;
6642;SDS011;3357;48.050;7.800;2024-01-11T05:48:37;21.90;;;9.87;;
6642;SDS011;3357;48.050;7.800;2024-01-11T05:51:03;22.10;;;9.00;;
6642;SDS011;3357;48.050;7.800;2024-01-11T05:53:28;20.77;;;8.97;;
6642;SDS011;3357;48.050;7.800;2024-01-11T05:55:54;20.00;;;8.70;;
6642;SDS011;3357;48.050;7.800;2024-01-11T05:58:19;15.80;;;8.33;;
6642;SDS011;3357;48.050;7.800;2024-01-11T06:00:45;25.13;;;9.83;;
6642;SDS011;3357;48.050;7.800;2024-01-11T06:03:11;20.60;;;9.27;;
6642;SDS011;3357;48.050;7.800;2024-01-11T06:05:37;25.67;;;10.10;;
6642;SDS011;3357;48.050;7.800;2024-01-11T06:08:03;22.00;;;9.87;;
6642;SDS011;3357;48.050;7.800;2024-01-11T06:10:28;20.93;;;9.30;;
6642;SDS011;3357;48.050;7.800;2024-01-11T06:12:54;24.50;;;9.20;;
6642;SDS011;3357;48.050;7.800;2024-01-11T06:15:19;19.03;;;7.97;;
6642;SDS011;3357;48.050;7.800;2024-01-11T06:17:44;23.33;;;9.27;;
6642;SDS011;3357;48.050;7.800;2024-01-11T06:20:10;21.87;;;9.47;;
6642;SDS011;3357;48.050;7.800;2024-01-11T06:22:36;20.63;;;9.37;;
6642;SDS011;3357;48.050;7.800;2024-01-11T06:25:02;19.40;;;9.13;;
6642;SDS011;3357;48.050;7.800;2024-01-11T06:27:27;21.43;;;9.57;;
6642;SDS011;3357;48.050;7.800;2024-01-11T06:29:52;19.90;;;9.87;;
6642;SDS011;3357;48.050;7.800;2024-01-11T06:32:17;18.53;;;8.70;;
6642;SDS011;3357;48.050;7.800;2024-01-11T06:34:43;20.37;;;8.70;;
6642;SDS011;3357;48.050;7.800;2024-01-11T06:37:11;20.83;;;9.10;;
6642;SDS011;3357;48.050;7.800;2024-01-11T06:39:36;15.80;;;8.43;;
6642;SDS011;3357;48.050;7.800;2024-01-11T06:42:01;18.60;;;9.43;;
6642;SDS011;3357;48.050;7.800;2024-01-11T06:44:27;18.87;;;8.37;;
6642;SDS011;3357;48.050;7.800;2024-01-11T06:46:52;18.63;;;9.87;;
6642;SDS011;3357;48.050;7.800;2024-01-11T06:49:17;28.10;;;11.23;;
6642;SDS011;3357;48.050;7.800;2024-01-11T06:51:43;21.73;;;10.00;;
6642;SDS011;3357;48.050;7.800;2024-01-11T06:54:08;21.87;;;9.70;;
6642;SDS011;3357;48.050;7.800;2024-01-11T06:56:33;18.80;;;8.77;;
6642;SDS011;3357;48.050;7.800;2024-01-11T06:58:59;21.50;;;8.20;;
6642;SDS011;3357;48.050;7.800;2024-01-11T07:01:24;23.23;;;9.77;;
6642;SDS011;3357;48.050;7.800;2024-01-11T07:03:49;18.80;;;9.63;;
6642;SDS011;3357;48.050;7.800;2024-01-11T07:06:17;22.87;;;9.40;;
6642;SDS011;3357;48.050;7.800;2024-01-11T07:08:43;20.83;;;9.60;;
6642;SDS011;3357;48.050;7.800;2024-01-11T07:11:08;17.87;;;8.97;;
6642;SDS011;3357;48.050;7.800;2024-01-11T07:13:33;26.10;;;11.00;;
6642;SDS011;3357;48.050;7.800;2024-01-11T07:15:58;20.97;;;9.60;;
6642;SDS011;3357;48.050;7.800;2024-01-11T07:18:24;20.50;;;9.43;;
6642;SDS011;3357;48.050;7.800;2024-01-11T07:20:50;22.33;;;9.20;;
6642;SDS011;3357;48.050;7.800;2024-01-11T07:23:16;19.67;;;9.47;;
6642;SDS011;3357;48.050;7.800;2024-01-11T07:25:41;17.13;;;8.60;;
6642;SDS011;3357;48.050;7.800;2024-01-11T07:28:07;23.90;;;9.73;;
6642;SDS011;3357;48.050;7.800;2024-01-11T07:30:32;22.13;;;9.17;;
6642;SDS011;3357;48.050;7.800;2024-01-11T07:32:58;23.10;;;9.93;;
6642;SDS011;3357;48.050;7.800;2024-01-11T07:35:23;18.07;;;9.07;;
6642;SDS011;3357;48.050;7.800;2024-01-11T07:37:48;24.90;;;9.67;;
6642;SDS011;3357;48.050;7.800;2024-01-11T07:40:15;20.30;;;9.10;;
6642;SDS011;3357;48.050;7.800;2024-01-11T07:42:41;23.13;;;9.50;;
6642;SDS011;3357;48.050;7.800;2024-01-11T07:45:07;19.33;;;9.47;;
6642;SDS011;3357;48.050;7.800;2024-01-11T07:47:34;23.67;;;9.20;;
6642;SDS011;3357;48.050;7.800;2024-01-11T07:49:59;21.67;;;8.90;;
6642;SDS011;3357;48.050;7.800;2024-01-11T07:52:25;24.17;;;9.30;;
6642;SDS011;3357;48.050;7.800;2024-01-11T07:54:50;24.70;;;9.63;;
6642;SDS011;3357;48.050;7.800;2024-01-11T07:57:15;23.83;;;9.37;;
6642;SDS011;3357;48.050;7.800;2024-01-11T07:59:41;24.33;;;10.83;;
6642;SDS011;3357;48.050;7.800;2024-01-11T08:02:06;29.73;;;12.07;;
6642;SDS011;3357;48.050;7.800;2024-01-11T08:04:32;27.00;;;10.10;;
6642;SDS011;3357;48.050;7.800;2024-01-11T08:06:57;35.77;;;14.70;;
6642;SDS011;3357;48.050;7.800;2024-01-11T08:09:26;24.23;;;11.60;;
6642;SDS011;3357;48.050;7.800;2024-01-11T08:11:52;29.00;;;11.53;;
6642;SDS011;3357;48.050;7.800;2024-01-11T08:14:19;24.20;;;10.30;;
6642;SDS011;3357;48.050;7.800;2024-01-11T08:16:44;32.63;;;12.77;;
6642;SDS011;3357;48.050;7.800;2024-01-11T08:19:10;28.40;;;12.50;;
6642;SDS011;3357;48.050;7.800;2024-01-11T08:21:35;26.00;;;13.10;;
6642;SDS011;3357;48.050;7.800;2024-01-11T08:24:01;30.57;;;13.07;;
6642;SDS011;3357;48.050;7.800;2024-01-11T08:26:28;28.63;;;12.43;;
6642;SDS011;3357;48.050;7.800;2024-01-11T08:28:54;26.53;;;12.73;;
6642;SDS011;3357;48.050;7.800;2024-01-11T08:31:20;29.10;;;12.50;;
6642;SDS011;3357;48.050;7.800;2024-01-11T08:33:46;27.90;;;11.17;;
6642;SDS011;3357;48.050;7.800;2024-01-11T08:36:11;21.23;;;10.83;;
6642;SDS011;3357;48.050;7.800;2024-01-11T08:38:36;29.67;;;11.33;;
6642;SDS011;3357;48.050;7.800;2024-01-11T08:41:02;26.97;;;12.60;;
6642;SDS011;3357;48.050;7.800;2024-01-11T08:43:28;24.27;;;12.00;;
6642;SDS011;3357;48.050;7.800;2024-01-11T08:45:53;30.23;;;11.73;;
6642;SDS011;3357;48.050;7.800;2024-01-11T08:48:19;26.40;;;11.57;;
6642;SDS011;3357;48.050;7.800;2024-01-11T08:50:44;28.97;;;12.10;;
6642;SDS011;3357;48.050;7.800;2024-01-11T08:53:09;26.37;;;11.60;;
6642;SDS011;3357;48.050;7.800;2024-01-11T08:55:35;23.97;;;11.03;;
6642;SDS011;3357;48.050;7.800;2024-01-11T08:58:00;26.87;;;12.57;;
6642;SDS011;3357;48.050;7.800;2024-01-11T09:00:26;25.43;;;11.83;;
6642;SDS011;3357;48.050;7.800;2024-01-11T09:02:51;32.87;;;12.57;;
6642;SDS011;3357;48.050;7.800;2024-01-11T09:05:17;29.27;;;13.50;;
6642;SDS011;3357;48.050;7.800;2024-01-11T09:07:42;26.67;;;11.60;;
6642;SDS011;3357;48.050;7.800;2024-01-11T09:10:08;41.13;;;13.77;;
6642;SDS011;3357;48.050;7.800;2024-01-11T09:12:36;27.27;;;12.90;;
6642;SDS011;3357;48.050;7.800;2024-01-11T09:15:01;31.47;;;12.80;;
6642;SDS011;3357;48.050;7.800;2024-01-11T09:17:26;29.77;;;13.60;;
6642;SDS011;3357;48.050;7.800;2024-01-11T09:19:51;34.43;;;13.10;;
6642;SDS011;3357;48.050;7.800;2024-01-11T09:22:17;27.13;;;12.97;;
6642;SDS011;3357;48.050;7.800;2024-01-11T09:24:42;31.87;;;14.43;;
6642;SDS011;3357;48.050;7.800;2024-01-11T09:27:07;39.93;;;15.83;;
6642;SDS011;3357;48.050;7.800;2024-01-11T09:29:33;45.53;;;16.20;;
6642;SDS011;3357;48.050;7.800;2024-01-11T09:31:58;41.23;;;14.83;;
6642;SDS011;3357;48.050;7.800;2024-01-11T09:34:24;32.67;;;13.47;;
6642;SDS011;3357;48.050;7.800;2024-01-11T09:36:49;26.23;;;12.97;;
6642;SDS011;3357;48.050;7.800;2024-01-11T09:39:15;32.47;;;14.40;;
6642;SDS011;3357;48.050;7.800;2024-01-11T09:41:41;31.10;;;12.67;;
6642;SDS011;3357;48.050;7.800;2024-01-11T09:44:17;32.40;;;13.70;;
6642;SDS011;3357;48.050;7.800;2024-01-11T09:46:43;26.77;;;12.33;;
6642;SDS011;3357;48.050;7.800;2024-01-11T09:49:08;30.20;;;13.30;;
6642;SDS011;3357;48.050;7.800;2024-01-11T09:51:34;28.67;;;13.10;;
6642;SDS011;3357;48.050;7.800;2024-01-11T09:54:03;26.70;;;14.00;;
6642;SDS011;3357;48.050;7.800;2024-01-11T09:56:28;31.80;;;14.03;;
6642;SDS011;3357;48.050;7.800;2024-01-11T09:58:53;28.43;;;14.50;;
6642;SDS011;3357;48.050;7.800;2024-01-11T10:01:19;33.30;;;15.20;;
6642;SDS011;3357;48.050;7.800;2024-01-11T10:03:45;37.70;;;14.53;;
6642;SDS011;3357;48.050;7.800;2024-01-11T10:06:13;32.73;;;14.03;;
6642;SDS011;3357;48.050;7.800;2024-01-11T10:08:38;31.93;;;14.00;;
6642;SDS011;3357;48.050;7.800;2024-01-11T10:11:04;29.17;;;14.07;;
6642;SDS011;3357;48.050;7.800;2024-01-11T10:13:30;33.27;;;12.87;;
6642;SDS011;3357;48.050;7.800;2024-01-11T10:16:10;31.97;;;15.00;;
6642;SDS011;3357;48.050;7.800;2024-01-11T10:18:38;27.60;;;13.47;;
6642;SDS011;3357;48.050;7.800;2024-01-11T10:21:04;33.10;;;15.10;;
6642;SDS011;3357;48.050;7.800;2024-01-11T10:23:32;41.83;;;14.10;;
6642;SDS011;3357;48.050;7.800;2024-01-11T10:25:58;28.43;;;14.20;;
6642;SDS011;3357;48.050;7.800;2024-01-11T10:28:25;31.37;;;13.30;;
6642;SDS011;3357;48.050;7.800;2024-01-11T10:30:51;29.40;;;13.10;;
6642;SDS011;3357;48.050;7.800;2024-01-11T10:33:19;30.40;;;15.10;;
6642;SDS011;3357;48.050;7.800;2024-01-11T10:35:46;41.80;;;15.13;;
6642;SDS011;3357;48.050;7.800;2024-01-11T10:38:12;32.27;;;14.20;;
6642;SDS011;3357;48.050;7.800;2024-01-11T10:40:38;29.40;;;13.90;;
6642;SDS011;3357;48.050;7.800;2024-01-11T10:43:04;27.83;;;14.60;;
6642;SDS011;3357;48.050;7.800;2024-01-11T10:45:30;34.73;;;13.93;;
6642;SDS011;3357;48.050;7.800;2024-01-11T10:48:01;30.80;;;14.33;;
6642;SDS011;3357;48.050;7.800;2024-01-11T10:50:30;29.67;;;13.50;;
6642;SDS011;3357;48.050;7.800;2024-01-11T10:53:02;33.03;;;14.07;;
6642;SDS011;3357;48.050;7.800;2024-01-11T10:55:35;28.77;;;14.30;;
6642;SDS011;3357;48.050;7.800;2024-01-11T10:58:01;27.30;;;14.03;;
6642;SDS011;3357;48.050;7.800;2024-01-11T11:00:28;30.90;;;14.20;;
6642;SDS011;3357;48.050;7.800;2024-01-11T11:02:54;32.47;;;15.57;;
6642;SDS011;3357;48.050;7.800;2024-01-11T11:05:20;29.40;;;13.87;;
6642;SDS011;3357;48.050;7.800;2024-01-11T11:07:49;31.67;;;15.43;;
6642;SDS011;3357;48.050;7.800;2024-01-11T11:10:15;25.80;;;14.23;;
6642;SDS011;3357;48.050;7.800;2024-01-11T11:12:42;29.73;;;14.87;;
6642;SDS011;3357;48.050;7.800;2024-01-11T11:15:13;36.17;;;15.80;;
6642;SDS011;3357;48.050;7.800;2024-01-11T11:17:40;32.93;;;14.50;;
6642;SDS011;3357;48.050;7.800;2024-01-11T11:20:09;32.07;;;15.83;;
6642;SDS011;3357;48.050;7.800;2024-01-11T11:22:37;36.40;;;17.33;;
6642;SDS011;3357;48.050;7.800;2024-01-11T11:25:02;35.00;;;16.40;;
6642;SDS011;3357;48.050;7.800;2024-01-11T11:27:48;34.90;;;16.97;;
6642;SDS011;3357;48.050;7.800;2024-01-11T11:30:14;35.97;;;17.10;;
6642;SDS011;3357;48.050;7.800;2024-01-11T11:32:42;39.57;;;15.10;;
6642;SDS011;3357;48.050;7.800;2024-01-11T11:35:08;36.23;;;17.20;;
6642;SDS011;3357;48.050;7.800;2024-01-11T11:41:10;35.07;;;15.67;;
6642;SDS011;3357;48.050;7.800;2024-01-11T11:43:36;36.13;;;16.00;;
6642;SDS011;3357;48.050;7.800;2024-01-11T11:46:01;32.80;;;16.50;;
6642;SDS011;3357;48.050;7.800;2024-01-11T11:51:14;32.93;;;15.53;;
6642;SDS011;3357;48.050;7.800;2024-01-11T11:53:40;34.53;;;16.37;;
6642;SDS011;3357;48.050;7.800;2024-01-11T11:56:06;34.10;;;15.90;;
6642;SDS011;3357;48.050;7.800;2024-01-11T11:58:32;27.93;;;15.17;;
6642;SDS011;3357;48.050;7.800;2024-01-11T12:00:59;33.53;;;14.87;;
6642;SDS011;3357;48.050;7.800;2024-01-11T12:06:46;33.57;;;16.83;;
6642;SDS011;3357;48.050;7.800;2024-01-11T12:09:11;36.07;;;16.80;;
6642;SDS011;3357;48.050;7.800;2024-01-11T12:11:46;36.40;;;16.70;;
6642;SDS011;3357;48.050;7.800;2024-01-11T12:14:11;36.03;;;17.07;;
6642;SDS011;3357;48.050;7.800;2024-01-11T12:16:36;40.20;;;15.40;;
6642;SDS011;3357;48.050;7.800;2024-01-11T12:19:01;31.73;;;15.53;;
6642;SDS011;3357;48.050;7.800;2024-01-11T12:21:27;35.63;;;17.43;;
6642;SDS011;3357;48.050;7.800;2024-01-11T12:23:53;31.67;;;16.47;;
6642;SDS011;3357;48.050;7.800;2024-01-11T12:26:18;33.13;;;16.37;;
6642;SDS011;3357;48.050;7.800;2024-01-11T12:28:46;35.33;;;16.50;;
6642;SDS011;3357;48.050;7.800;2024-01-11T12:31:12;37.37;;;18.13;;
6642;SDS011;3357;48.050;7.800;2024-01-11T12:33:37;35.73;;;16.80;;
6642;SDS011;3357;48.050;7.800;2024-01-11T12:36:06;38.90;;;16.63;;
6642;SDS011;3357;48.050;7.800;2024-01-11T12:38:33;37.17;;;16.37;;
6642;SDS011;3357;48.050;7.800;2024-01-11T12:40:58;34.40;;;16.90;;
6642;SDS011;3357;48.050;7.800;2024-01-11T12:43:24;34.10;;;15.83;;
6642;SDS011;3357;48.050;7.800;2024-01-11T12:45:49;30.70;;;16.20;;
6642;SDS011;3357;48.050;7.800;2024-01-11T12:48:14;36.90;;;16.00;;
6642;SDS011;3357;48.050;7.800;2024-01-11T12:50:41;41.43;;;17.40;;
6642;SDS011;3357;48.050;7.800;2024-01-11T12:53:07;38.20;;;16.07;;
6642;SDS011;3357;48.050;7.800;2024-01-11T12:55:33;35.60;;;15.80;;
6642;SDS011;3357;48.050;7.800;2024-01-11T12:58:03;36.20;;;17.10;;
6642;SDS011;3357;48.050;7.800;2024-01-11T13:00:32;35.90;;;16.87;;
6642;SDS011;3357;48.050;7.800;2024-01-11T13:02:58;33.07;;;15.27;;
6642;SDS011;3357;48.050;7.800;2024-01-11T13:05:24;35.43;;;15.30;;
6642;SDS011;3357;48.050;7.800;2024-01-11T13:07:50;39.70;;;16.97;;
6642;SDS011;3357;48.050;7.800;2024-01-11T13:10:15;38.63;;;16.67;;
6642;SDS011;3357;48.050;7.800;2024-01-11T13:12:42;32.10;;;15.47;;
6642;SDS011;3357;48.050;7.800;2024-01-11T13:15:07;30.80;;;15.20;;
6642;SDS011;3357;48.050;7.800;2024-01-11T13:17:32;35.63;;;16.90;;
6642;SDS011;3357;48.050;7.800;2024-01-11T13:19:58;33.37;;;15.83;;
6642;SDS011;3357;48.050;7.800;2024-01-11T13:22:24;35.37;;;16.40;;
6642;SDS011;3357;48.050;7.800;2024-01-11T13:24:49;34.63;;;16.47;;
6642;SDS011;3357;48.050;7.800;2024-01-11T13:27:15;42.83;;;17.20;;
6642;SDS011;3357;48.050;7.800;2024-01-11T13:29:40;33.33;;;15.57;;
6642;SDS011;3357;48.050;7.800;2024-01-11T13:32:05;36.17;;;16.77;;
6642;SDS011;3357;48.050;7.800;2024-01-11T13:34:31;36.97;;;16.27;;
6642;SDS011;3357;48.050;7.800;2024-01-11T13:36:56;39.63;;;16.63;;
6642;SDS011;3357;48.050;7.800;2024-01-11T13:39:24;32.87;;;15.07;;
6642;SDS011;3357;48.050;7.800;2024-01-11T13:41:50;37.63;;;16.87;;
6642;SDS011;3357;48.050;7.800;2024-01-11T13:44:15;31.47;;;15.93;;
6642;SDS011;3357;48.050;7.800;2024-01-11T13:46:41;32.40;;;15.47;;
6642;SDS011;3357;48.050;7.800;2024-01-11T13:49:06;41.17;;;17.97;;
6642;SDS011;3357;48.050;7.800;2024-01-11T13:51:31;27.57;;;15.73;;
6642;SDS011;3357;48.050;7.800;2024-01-11T13:53:57;31.17;;;16.30;;
6642;SDS011;3357;48.050;7.800;2024-01-11T13:56:24;35.43;;;17.13;;
6642;SDS011;3357;48.050;7.800;2024-01-11T13:58:49;31.03;;;15.57;;
6642;SDS011;3357;48.050;7.800;2024-01-11T14:01:15;32.53;;;15.33;;
6642;SDS011;3357;48.050;7.800;2024-01-11T14:07:02;33.40;;;16.83;;
6642;SDS011;3357;48.050;7.800;2024-01-11T14:09:28;35.80;;;17.80;;
6642;SDS011;3357;48.050;7.800;2024-01-11T14:11:53;31.53;;;15.30;;
6642;SDS011;3357;48.050;7.800;2024-01-11T14:14:19;33.63;;;17.07;;
6642;SDS011;3357;48.050;7.800;2024-01-11T14:16:45;37.67;;;16.13;;
6642;SDS011;3357;48.050;7.800;2024-01-11T14:19:11;43.80;;;19.47;;
6642;SDS011;3357;48.050;7.800;2024-01-11T14:21:37;39.43;;;17.80;;
6642;SDS011;3357;48.050;7.800;2024-01-11T14:24:03;34.23;;;16.20;;
6642;SDS011;3357;48.050;7.800;2024-01-11T14:26:29;36.30;;;17.53;;
6642;SDS011;3357;48.050;7.800;2024-01-11T14:28:56;38.20;;;17.00;;
6642;SDS011;3357;48.050;7.800;2024-01-11T14:31:21;40.83;;;18.53;;
6642;SDS011;3357;48.050;7.800;2024-01-11T14:33:46;31.87;;;16.60;;
6642;SDS011;3357;48.050;7.800;2024-01-11T14:36:13;38.50;;;18.33;;
6642;SDS011;3357;48.050;7.800;2024-01-11T14:38:39;34.50;;;16.57;;
6642;SDS011;3357;48.050;7.800;2024-01-11T14:41:04;39.07;;;17.97;;
6642;SDS011;3357;48.050;7.800;2024-01-11T14:43:30;33.53;;;17.03;;
6642;SDS011;3357;48.050;7.800;2024-01-11T14:45:55;36.27;;;17.23;;
6642;SDS011;3357;48.050;7.800;2024-01-11T14:48:20;35.20;;;16.60;;
6642;SDS011;3357;48.050;7.800;2024-01-11T14:50:46;34.10;;;17.30;;
6642;SDS011;3357;48.050;7.800;2024-01-11T14:53:12;39.73;;;18.87;;
6642;SDS011;3357;48.050;7.800;2024-01-11T14:55:37;36.67;;;17.53;;
6642;SDS011;3357;48.050;7.800;2024-01-11T14:58:02;36.23;;;17.87;;